Ann Arbor, MI

6:44 AM EST on January 29, 2015 (GMT -0500)
Hawthorne Ridge | Change Station
CLOSE
Current Station
Personal Weather Station
Location: Ann Arbor, MI
Elevation: 942 ft
Nearby Weather Stations
Active Advisory: Special Statement

Elev 942 ft 42.24 °N, 83.77 °W | Updated 6 minutes ago

Snow
Snow
26.8 °F
Feels Like 27 °F
N
2.2
Wind Variable Wind from NNW

Today
High -- | Low -- °F
--% Chance of Precip.
Yesterday
High -- | Low -- °F
Precip. -- in
7:51 AM 5:45 PM
Waxing Gibbous, 73% visible
Pressure 29.83 in
Visibility 6.0 miles
Clouds Overcast 4700 ft
Windchill 27 °F
Dew Point 23 °F
Humidity 86%
Rainfall 0.00 in
Snow Depth Not available.
UV 0 out of 12
Pollen .10 out of 12
Air Quality Not available.
Flu Activity Not available.
SPECI KARB 291130Z AUTO 14007KT 6SM -FZRA OVC047 M02/M06 A2983 RMK AO2 UPB14E24FZRAB24 P0001 I1001 T10171056

More Conditions Fewer Conditions

Pressure 29.83 in
Visibility 6.0 miles
Clouds Overcast 4700 ft
Windchill 27 °F
Dew Point 23 °F
Humidity 86%
Rainfall 0.00 in
Snow Depth Not available.
UV 0 out of 12
Pollen .10 out of 12
Air Quality Not available.
Flu Activity Not available.
SPECI KARB 291130Z AUTO 14007KT 6SM -FZRA OVC047 M02/M06 A2983 RMK AO2 UPB14E24FZRAB24 P0001 I1001 T10171056

More Conditions Fewer Conditions

10-Day Weather Forecast

Almanac

Astronomy

Jan. 29, 2015 Rise Set
Actual Time
Civil Twilight
Nautical Twilight
Astronomical Twilight
Moon
Length of Visible Light
Length of Day
Tomorrow will be .
, % of the Moon is Illuminated

Today's Extremes

State Highs State Lows

Community

WunderPhotos

Upload Photos

1,791,408 photos uploaded!

WunderBlogs® & News

Nearby

Air Quality

  Air Quality AQ Index Pollutant
Not available.

Snow Depth

Station Depth Elevation

Earthquake Activity

City Distance Mag. Time & Date
Minimum magnitude displayed is 2.5.

Coastal Water Temperatures

Place Temperature

Nearby Weather Stations